PRINT OUT SECTION, show ยป

TAF EPBY 170530Z 1706/1806 VRB03KT CAVOK
TEMPO 1710/1720 SHRA SCT040CB
PROB30 TEMPO 1712/1718 VRB15G30KT 4000 TSRA BKN030CB=

TAF EPGD 170530Z 1706/1806 VRB03KT CAVOK
TEMPO 1710/1716 04010KT
PROB40 TEMPO 1710/1718 SHRA SCT040CB
BECMG 1720/1723 BKN004
TEMPO 1722/1806 0300 FG=

TAF EPKK 170530Z 1706/1806 VRB02KT CAVOK
TEMPO 1710/1721 4000 SHRA BKN035CB
PROB40 TEMPO 1712/1721 VRB15G28KT 2500 TSRA
TEMPO 1722/1805 3000 BR
PROB40 TEMPO 1800/1805 0500 FG BKN004=

TAF EPKT 170530Z 1706/1806 VRB02KT CAVOK
TEMPO 1710/1719 4000 SHRA BKN035CB
PROB30 TEMPO 1712/1718 VRB15G28KT 2500 TSRA
TEMPO 1722/1724 3000 BR
TEMPO 1800/1805 0500 FG BKN004=

TAF EPLB 170530Z 1706/1806 VRB02KT 9999 SCT035
PROB30 TEMPO 1706/1708 BKN014CB
TEMPO 1708/1719 4000 SHRA BKN040CB
PROB40 TEMPO 1710/1719 1500 TSRA BKN014CB=

TAF EPLL 170530Z 1706/1806 VRB02KT CAVOK
BECMG 1709/1712 02010KT
TEMPO 1709/1719 4000 TSRA SCT050CB
PROB40 TEMPO 1712/1718 VRB15G30KT 1500 TSRA BKN020CB=

TAF EPMO 170530Z 1706/1806 07008KT 9999 SCT040
TEMPO 1708/1720 SCT050CB
PROB40 TEMPO 1711/1718 VRB15G28KT 4000 TSRA BKN020CB=

TAF EPPO 170530Z 1706/1806 VRB02KT CAVOK
BECMG 1712/1715 34010KT
BECMG 1717/1720 09005KT=

TAF EPRZ 170530Z 1706/1806 VRB02KT 9999 BKN030
TEMPO 1709/1718 VRB15G30KT 4000 TSRA BKN025CB
TEMPO 1721/1805 3000 BR
PROB40 TEMPO 1800/1805 0500 FG BKN004=

TAF EPSC 170530Z 1706/1806 VRB02KT CAVOK
PROB40 TEMPO 1711/1718 -SHRA SCT050CB
BECMG 1715/1718 05010KT=

TAF EPWA 170530Z 1706/1806 VRB02KT 9999 SCT035
BECMG 1708/1710 04010KT
TEMPO 1708/1720 SCT050CB
PROB40 TEMPO 1711/1718 VRB15G28KT 4000 TSRA BKN020CB
BECMG 1720/1722 VRB02KT=

TAF EPWR 170530Z 1706/1806 VRB02KT CAVOK=